sensor_id;sensor_type;location;lat;lon;timestamp;temperature;humidity
75387;DHT22;63966;47.914;22.266;2023-03-11T00:00:03;10.80;85.11
75387;DHT22;63966;47.914;22.266;2023-03-11T00:03:12;10.83;85.16
75387;DHT22;63966;47.914;22.266;2023-03-11T00:06:16;10.80;85.23
75387;DHT22;63966;47.914;22.266;2023-03-11T00:09:19;10.80;85.22
75387;DHT22;63966;47.914;22.266;2023-03-11T00:12:23;10.83;85.16
75387;DHT22;63966;47.914;22.266;2023-03-11T00:15:27;10.74;85.56
75387;DHT22;63966;47.914;22.266;2023-03-11T00:18:30;10.74;85.64
75387;DHT22;63966;47.914;22.266;2023-03-11T00:21:34;10.73;85.61
75387;DHT22;63966;47.914;22.266;2023-03-11T00:24:37;10.72;85.69
75387;DHT22;63966;47.914;22.266;2023-03-11T00:27:41;10.72;85.69
75387;DHT22;63966;47.914;22.266;2023-03-11T00:30:45;10.63;86.05
75387;DHT22;63966;47.914;22.266;2023-03-11T00:33:49;10.67;85.89
75387;DHT22;63966;47.914;22.266;2023-03-11T00:36:52;10.69;85.79
75387;DHT22;63966;47.914;22.266;2023-03-11T00:39:56;10.66;86.00
75387;DHT22;63966;47.914;22.266;2023-03-11T00:42:59;10.56;86.40
75387;DHT22;63966;47.914;22.266;2023-03-11T00:46:03;10.55;86.63
75387;DHT22;63966;47.914;22.266;2023-03-11T00:49:08;10.55;86.37
75387;DHT22;63966;47.914;22.266;2023-03-11T00:52:11;10.62;86.36
75387;DHT22;63966;47.914;22.266;2023-03-11T00:55:18;10.60;86.16
75387;DHT22;63966;47.914;22.266;2023-03-11T00:58:22;10.66;86.00
75387;DHT22;63966;47.914;22.266;2023-03-11T01:01:31;10.70;85.75
75387;DHT22;63966;47.914;22.266;2023-03-11T01:04:34;10.76;85.63
75387;DHT22;63966;47.914;22.266;2023-03-11T01:07:38;10.74;85.67
75387;DHT22;63966;47.914;22.266;2023-03-11T01:10:42;10.69;85.79
75387;DHT22;63966;47.914;22.266;2023-03-11T01:13:45;10.62;86.15
75387;DHT22;63966;47.914;22.266;2023-03-11T01:16:49;10.59;86.22
75387;DHT22;63966;47.914;22.266;2023-03-11T01:19:53;10.63;86.18
75387;DHT22;63966;47.914;22.266;2023-03-11T01:22:58;10.63;86.14
75387;DHT22;63966;47.914;22.266;2023-03-11T01:26:03;10.72;85.97
75387;DHT22;63966;47.914;22.266;2023-03-11T01:29:07;10.72;85.75
75387;DHT22;63966;47.914;22.266;2023-03-11T01:32:11;10.72;85.75
75387;DHT22;63966;47.914;22.266;2023-03-11T01:35:17;10.69;86.06
75387;DHT22;63966;47.914;22.266;2023-03-11T01:38:21;10.64;86.47
75387;DHT22;63966;47.914;22.266;2023-03-11T01:41:25;10.59;86.90
75387;DHT22;63966;47.914;22.266;2023-03-11T01:44:28;10.52;87.26
75387;DHT22;63966;47.914;22.266;2023-03-11T01:47:35;10.52;87.63
75387;DHT22;63966;47.914;22.266;2023-03-11T01:50:47;10.57;87.87
75387;DHT22;63966;47.914;22.266;2023-03-11T01:53:53;10.46;88.60
75387;DHT22;63966;47.914;22.266;2023-03-11T01:56:59;10.36;89.14
75387;DHT22;63966;47.914;22.266;2023-03-11T02:00:04;10.31;89.65
75387;DHT22;63966;47.914;22.266;2023-03-11T02:03:19;10.29;89.77
75387;DHT22;63966;47.914;22.266;2023-03-11T02:06:25;10.28;90.10
75387;DHT22;63966;47.914;22.266;2023-03-11T02:09:29;10.18;90.61
75387;DHT22;63966;47.914;22.266;2023-03-11T02:12:35;10.19;90.97
75387;DHT22;63966;47.914;22.266;2023-03-11T02:15:40;10.19;90.95
75387;DHT22;63966;47.914;22.266;2023-03-11T02:18:43;10.19;91.08
75387;DHT22;63966;47.914;22.266;2023-03-11T02:21:47;10.16;91.19
75387;DHT22;63966;47.914;22.266;2023-03-11T02:28:18;10.16;91.51
75387;DHT22;63966;47.914;22.266;2023-03-11T02:31:23;10.31;91.27
75387;DHT22;63966;47.914;22.266;2023-03-11T02:34:32;10.21;91.45
75387;DHT22;63966;47.914;22.266;2023-03-11T02:37:36;10.16;91.85
75387;DHT22;63966;47.914;22.266;2023-03-11T02:40:49;10.11;91.86
75387;DHT22;63966;47.914;22.266;2023-03-11T02:43:58;10.08;92.10
75387;DHT22;63966;47.914;22.266;2023-03-11T02:47:02;9.99;92.46
75387;DHT22;63966;47.914;22.266;2023-03-11T02:50:08;9.93;92.61
75387;DHT22;63966;47.914;22.266;2023-03-11T02:53:13;9.91;92.81
75387;DHT22;63966;47.914;22.266;2023-03-11T02:56:17;9.91;92.84
75387;DHT22;63966;47.914;22.266;2023-03-11T02:59:21;9.88;92.75
75387;DHT22;63966;47.914;22.266;2023-03-11T03:02:24;9.87;93.01
75387;DHT22;63966;47.914;22.266;2023-03-11T03:05:28;9.83;92.72
75387;DHT22;63966;47.914;22.266;2023-03-11T03:08:33;9.74;92.87
75387;DHT22;63966;47.914;22.266;2023-03-11T03:11:37;9.80;92.78
75387;DHT22;63966;47.914;22.266;2023-03-11T03:14:41;9.77;92.90
75387;DHT22;63966;47.914;22.266;2023-03-11T03:17:45;9.66;93.30
75387;DHT22;63966;47.914;22.266;2023-03-11T03:20:50;9.61;93.63
75387;DHT22;63966;47.914;22.266;2023-03-11T03:23:54;9.59;93.80
75387;DHT22;63966;47.914;22.266;2023-03-11T03:26:57;9.66;93.51
75387;DHT22;63966;47.914;22.266;2023-03-11T03:30:01;9.59;93.42
75387;DHT22;63966;47.914;22.266;2023-03-11T03:33:05;9.57;93.67
75387;DHT22;63966;47.914;22.266;2023-03-11T03:36:12;9.59;93.83
75387;DHT22;63966;47.914;22.266;2023-03-11T03:39:18;9.64;93.46
75387;DHT22;63966;47.914;22.266;2023-03-11T03:42:26;9.56;93.62
75387;DHT22;63966;47.914;22.266;2023-03-11T03:45:30;9.49;93.93
75387;DHT22;63966;47.914;22.266;2023-03-11T03:48:34;9.43;94.22
75387;DHT22;63966;47.914;22.266;2023-03-11T03:51:40;9.47;94.36
75387;DHT22;63966;47.914;22.266;2023-03-11T03:55:13;9.53;94.29
75387;DHT22;63966;47.914;22.266;2023-03-11T03:58:17;9.53;94.13
75387;DHT22;63966;47.914;22.266;2023-03-11T04:01:21;9.51;94.33
75387;DHT22;63966;47.914;22.266;2023-03-11T04:04:25;9.51;94.40
75387;DHT22;63966;47.914;22.266;2023-03-11T04:07:29;9.50;94.37
75387;DHT22;63966;47.914;22.266;2023-03-11T04:10:33;9.54;94.21
75387;DHT22;63966;47.914;22.266;2023-03-11T04:13:37;9.50;94.10
75387;DHT22;63966;47.914;22.266;2023-03-11T04:16:41;9.43;94.21
75387;DHT22;63966;47.914;22.266;2023-03-11T04:19:47;9.40;94.45
75387;DHT22;63966;47.914;22.266;2023-03-11T04:22:51;9.47;94.66
75387;DHT22;63966;47.914;22.266;2023-03-11T04:25:59;9.54;94.29
75387;DHT22;63966;47.914;22.266;2023-03-11T04:29:03;9.57;94.05
75387;DHT22;63966;47.914;22.266;2023-03-11T04:32:12;9.64;93.77
75387;DHT22;63966;47.914;22.266;2023-03-11T04:35:17;9.63;93.75
75387;DHT22;63966;47.914;22.266;2023-03-11T04:38:21;9.60;93.91
75387;DHT22;63966;47.914;22.266;2023-03-11T04:41:25;9.67;93.75
75387;DHT22;63966;47.914;22.266;2023-03-11T04:44:29;9.61;93.87
75387;DHT22;63966;47.914;22.266;2023-03-11T04:47:33;9.61;94.03
75387;DHT22;63966;47.914;22.266;2023-03-11T04:50:39;9.64;93.82
75387;DHT22;63966;47.914;22.266;2023-03-11T04:53:43;9.73;93.66
75387;DHT22;63966;47.914;22.266;2023-03-11T04:56:46;9.69;93.62
75387;DHT22;63966;47.914;22.266;2023-03-11T04:59:50;9.66;93.65
75387;DHT22;63966;47.914;22.266;2023-03-11T05:02:54;9.63;93.77
75387;DHT22;63966;47.914;22.266;2023-03-11T05:05:59;9.64;93.56
75387;DHT22;63966;47.914;22.266;2023-03-11T05:09:02;9.54;93.52
75387;DHT22;63966;47.914;22.266;2023-03-11T05:12:13;9.57;93.65
75387;DHT22;63966;47.914;22.266;2023-03-11T05:15:21;9.54;93.58
75387;DHT22;63966;47.914;22.266;2023-03-11T05:18:25;9.57;93.34
75387;DHT22;63966;47.914;22.266;2023-03-11T05:21:29;9.47;93.78
75387;DHT22;63966;47.914;22.266;2023-03-11T05:24:33;9.40;93.93
75387;DHT22;63966;47.914;22.266;2023-03-11T05:27:37;9.40;93.73
75387;DHT22;63966;47.914;22.266;2023-03-11T05:30:42;9.40;93.23
75387;DHT22;63966;47.914;22.266;2023-03-11T05:33:46;9.42;92.83
75387;DHT22;63966;47.914;22.266;2023-03-11T05:36:50;9.39;92.39
75387;DHT22;63966;47.914;22.266;2023-03-11T05:39:54;9.35;92.11
75387;DHT22;63966;47.914;22.266;2023-03-11T05:42:58;9.22;91.77
75387;DHT22;63966;47.914;22.266;2023-03-11T05:46:04;9.11;91.54
75387;DHT22;63966;47.914;22.266;2023-03-11T05:49:08;9.05;91.55
75387;DHT22;63966;47.914;22.266;2023-03-11T05:52:11;9.07;91.27
75387;DHT22;63966;47.914;22.266;2023-03-11T05:55:15;9.38;89.92
75387;DHT22;63966;47.914;22.266;2023-03-11T05:58:20;9.39;89.35
75387;DHT22;63966;47.914;22.266;2023-03-11T06:01:24;9.47;88.84
75387;DHT22;63966;47.914;22.266;2023-03-11T06:04:28;9.57;87.83
75387;DHT22;63966;47.914;22.266;2023-03-11T06:07:34;9.74;86.43
75387;DHT22;63966;47.914;22.266;2023-03-11T06:10:39;11.45;81.29
75387;DHT22;63966;47.914;22.266;2023-03-11T06:13:42;13.62;71.97
75387;DHT22;63966;47.914;22.266;2023-03-11T06:16:46;15.06;65.88
75387;DHT22;63966;47.914;22.266;2023-03-11T06:19:50;15.70;61.72
75387;DHT22;63966;47.914;22.266;2023-03-11T06:22:54;16.56;59.47
75387;DHT22;63966;47.914;22.266;2023-03-11T06:26:08;16.60;57.65
75387;DHT22;63966;47.914;22.266;2023-03-11T06:29:15;17.08;56.38
75387;DHT22;63966;47.914;22.266;2023-03-11T06:32:20;17.20;55.22
75387;DHT22;63966;47.914;22.266;2023-03-11T06:35:23;17.53;54.15
75387;DHT22;63966;47.914;22.266;2023-03-11T06:38:28;17.45;53.33
75387;DHT22;63966;47.914;22.266;2023-03-11T06:41:35;17.65;53.05
75387;DHT22;63966;47.914;22.266;2023-03-11T06:44:40;17.72;51.82
75387;DHT22;63966;47.914;22.266;2023-03-11T06:47:44;17.99;51.79
75387;DHT22;63966;47.914;22.266;2023-03-11T06:50:58;18.81;48.81
75387;DHT22;63966;47.914;22.266;2023-03-11T06:54:04;18.65;49.51
75387;DHT22;63966;47.914;22.266;2023-03-11T06:57:09;19.15;47.97
75387;DHT22;63966;47.914;22.266;2023-03-11T07:00:14;19.53;47.34
75387;DHT22;63966;47.914;22.266;2023-03-11T07:03:23;16.83;53.04
75387;DHT22;63966;47.914;22.266;2023-03-11T07:06:27;17.97;49.00
75387;DHT22;63966;47.914;22.266;2023-03-11T07:09:42;16.17;51.52
75387;DHT22;63966;47.914;22.266;2023-03-11T07:12:48;15.63;54.74
75387;DHT22;63966;47.914;22.266;2023-03-11T07:16:03;17.04;52.43
75387;DHT22;63966;47.914;22.266;2023-03-11T07:19:08;18.10;48.66
75387;DHT22;63966;47.914;22.266;2023-03-11T07:22:11;18.61;46.08
75387;DHT22;63966;47.914;22.266;2023-03-11T07:25:15;16.04;52.04
75387;DHT22;63966;47.914;22.266;2023-03-11T07:28:19;16.91;48.84
75387;DHT22;63966;47.914;22.266;2023-03-11T07:31:25;16.90;49.92
75387;DHT22;63966;47.914;22.266;2023-03-11T07:34:29;16.04;50.72
75387;DHT22;63966;47.914;22.266;2023-03-11T07:37:33;14.71;51.94
75387;DHT22;63966;47.914;22.266;2023-03-11T07:40:36;13.92;55.07
75387;DHT22;63966;47.914;22.266;2023-03-11T07:43:41;13.23;56.86
75387;DHT22;63966;47.914;22.266;2023-03-11T07:46:45;12.62;59.14
75387;DHT22;63966;47.914;22.266;2023-03-11T07:49:48;13.48;58.33
75387;DHT22;63966;47.914;22.266;2023-03-11T07:52:52;14.10;51.17
75387;DHT22;63966;47.914;22.266;2023-03-11T07:55:57;14.88;47.28
75387;DHT22;63966;47.914;22.266;2023-03-11T07:59:02;17.23;42.29
75387;DHT22;63966;47.914;22.266;2023-03-11T08:02:08;17.42;39.57
75387;DHT22;63966;47.914;22.266;2023-03-11T08:05:11;16.76;40.57
75387;DHT22;63966;47.914;22.266;2023-03-11T08:08:15;16.30;41.45
75387;DHT22;63966;47.914;22.266;2023-03-11T08:11:19;14.88;44.59
75387;DHT22;63966;47.914;22.266;2023-03-11T08:14:23;13.27;46.15
75387;DHT22;63966;47.914;22.266;2023-03-11T08:17:27;13.36;48.57
75387;DHT22;63966;47.914;22.266;2023-03-11T08:20:30;13.04;46.98
75387;DHT22;63966;47.914;22.266;2023-03-11T08:23:34;12.40;51.54
75387;DHT22;63966;47.914;22.266;2023-03-11T08:26:38;11.49;51.58
75387;DHT22;63966;47.914;22.266;2023-03-11T08:29:42;10.97;53.80
75387;DHT22;63966;47.914;22.266;2023-03-11T08:32:46;10.91;53.16
75387;DHT22;63966;47.914;22.266;2023-03-11T08:35:49;10.74;53.13
75387;DHT22;63966;47.914;22.266;2023-03-11T08:38:53;11.11;56.52
75387;DHT22;63966;47.914;22.266;2023-03-11T08:41:56;10.94;54.95
75387;DHT22;63966;47.914;22.266;2023-03-11T08:45:01;10.96;54.89
75387;DHT22;63966;47.914;22.266;2023-03-11T08:48:05;10.85;55.85
75387;DHT22;63966;47.914;22.266;2023-03-11T08:51:10;10.53;55.87
75387;DHT22;63966;47.914;22.266;2023-03-11T08:54:14;10.53;57.87
75387;DHT22;63966;47.914;22.266;2023-03-11T08:57:17;10.26;56.72
75387;DHT22;63966;47.914;22.266;2023-03-11T09:00:21;10.14;57.14
75387;DHT22;63966;47.914;22.266;2023-03-11T09:03:25;9.80;57.10
75387;DHT22;63966;47.914;22.266;2023-03-11T09:06:28;9.76;58.49
75387;DHT22;63966;47.914;22.266;2023-03-11T09:09:32;9.71;58.71
75387;DHT22;63966;47.914;22.266;2023-03-11T09:12:36;9.76;56.63
75387;DHT22;63966;47.914;22.266;2023-03-11T09:15:40;9.29;56.17
75387;DHT22;63966;47.914;22.266;2023-03-11T09:18:45;9.49;58.50
75387;DHT22;63966;47.914;22.266;2023-03-11T09:21:48;9.43;57.38
75387;DHT22;63966;47.914;22.266;2023-03-11T09:24:52;9.43;57.93
75387;DHT22;63966;47.914;22.266;2023-03-11T09:27:55;8.87;56.65
75387;DHT22;63966;47.914;22.266;2023-03-11T09:30:59;8.91;56.85
75387;DHT22;63966;47.914;22.266;2023-03-11T09:34:03;9.01;56.45
75387;DHT22;63966;47.914;22.266;2023-03-11T09:37:06;8.91;56.45
75387;DHT22;63966;47.914;22.266;2023-03-11T09:40:16;8.99;58.79
75387;DHT22;63966;47.914;22.266;2023-03-11T09:43:30;9.08;57.61
75387;DHT22;63966;47.914;22.266;2023-03-11T09:50:12;9.38;55.38
75387;DHT22;63966;47.914;22.266;2023-03-11T09:53:44;9.53;57.12
75387;DHT22;63966;47.914;22.266;2023-03-11T09:56:48;9.09;55.34
75387;DHT22;63966;47.914;22.266;2023-03-11T09:59:52;8.84;57.35
75387;DHT22;63966;47.914;22.266;2023-03-11T10:02:57;8.72;57.99
75387;DHT22;63966;47.914;22.266;2023-03-11T10:15:55;8.17;57.06
75387;DHT22;63966;47.914;22.266;2023-03-11T10:22:37;8.77;57.21
75387;DHT22;63966;47.914;22.266;2023-03-11T10:29:31;8.65;54.67
75387;DHT22;63966;47.914;22.266;2023-03-11T10:33:47;8.32;54.09
75387;DHT22;63966;47.914;22.266;2023-03-11T10:36:22;8.16;56.73
75387;DHT22;63966;47.914;22.266;2023-03-11T10:39:29;8.01;56.03
75387;DHT22;63966;47.914;22.266;2023-03-11T10:42:34;7.96;58.68
75387;DHT22;63966;47.914;22.266;2023-03-11T10:45:40;7.79;56.07
75387;DHT22;63966;47.914;22.266;2023-03-11T10:48:47;8.05;57.99
75387;DHT22;63966;47.914;22.266;2023-03-11T10:51:52;7.85;57.65
75387;DHT22;63966;47.914;22.266;2023-03-11T10:55:00;7.84;58.85
75387;DHT22;63966;47.914;22.266;2023-03-11T10:58:13;7.98;57.64
75387;DHT22;63966;47.914;22.266;2023-03-11T11:01:17;7.81;58.62
75387;DHT22;63966;47.914;22.266;2023-03-11T11:04:39;7.91;59.33
75387;DHT22;63966;47.914;22.266;2023-03-11T11:07:45;8.05;57.87
75387;DHT22;63966;47.914;22.266;2023-03-11T11:10:51;8.01;59.23
75387;DHT22;63966;47.914;22.266;2023-03-11T11:13:57;8.09;57.72
75387;DHT22;63966;47.914;22.266;2023-03-11T11:17:01;8.19;59.05
75387;DHT22;63966;47.914;22.266;2023-03-11T11:20:12;8.33;58.24
75387;DHT22;63966;47.914;22.266;2023-03-11T11:23:33;8.44;56.21
75387;DHT22;63966;47.914;22.266;2023-03-11T11:26:37;8.72;58.54
75387;DHT22;63966;47.914;22.266;2023-03-11T11:29:41;8.82;57.07
75387;DHT22;63966;47.914;22.266;2023-03-11T11:32:45;8.70;56.66
75387;DHT22;63966;47.914;22.266;2023-03-11T11:35:54;8.74;58.03
75387;DHT22;63966;47.914;22.266;2023-03-11T11:38:59;8.88;55.19
75387;DHT22;63966;47.914;22.266;2023-03-11T11:42:10;9.18;54.60
75387;DHT22;63966;47.914;22.266;2023-03-11T11:52:19;9.25;53.77
75387;DHT22;63966;47.914;22.266;2023-03-11T11:55:27;9.29;55.03
75387;DHT22;63966;47.914;22.266;2023-03-11T11:58:34;9.08;54.09
75387;DHT22;63966;47.914;22.266;2023-03-11T12:05:27;8.85;57.65
75387;DHT22;63966;47.914;22.266;2023-03-11T12:12:19;8.68;58.80
75387;DHT22;63966;47.914;22.266;2023-03-11T12:15:46;8.65;57.55
75387;DHT22;63966;47.914;22.266;2023-03-11T12:19:16;8.87;56.67
75387;DHT22;63966;47.914;22.266;2023-03-11T12:25:39;8.78;54.72
75387;DHT22;63966;47.914;22.266;2023-03-11T12:29:03;8.84;53.47
75387;DHT22;63966;47.914;22.266;2023-03-11T12:32:30;8.99;56.14
75387;DHT22;63966;47.914;22.266;2023-03-11T12:35:35;8.92;55.79
75387;DHT22;63966;47.914;22.266;2023-03-11T12:38:40;8.77;55.59
75387;DHT22;63966;47.914;22.266;2023-03-11T12:41:48;8.81;56.79
75387;DHT22;63966;47.914;22.266;2023-03-11T12:45:47;8.67;54.31
75387;DHT22;63966;47.914;22.266;2023-03-11T12:49:13;8.51;55.33
75387;DHT22;63966;47.914;22.266;2023-03-11T12:52:22;8.29;57.19
75387;DHT22;63966;47.914;22.266;2023-03-11T12:55:31;7.98;56.77
75387;DHT22;63966;47.914;22.266;2023-03-11T13:08:52;7.63;58.93
75387;DHT22;63966;47.914;22.266;2023-03-11T13:11:57;7.70;56.31
75387;DHT22;63966;47.914;22.266;2023-03-11T13:15:24;7.67;57.44
75387;DHT22;63966;47.914;22.266;2023-03-11T13:18:29;7.48;57.75
75387;DHT22;63966;47.914;22.266;2023-03-11T13:21:38;6.89;67.13
75387;DHT22;63966;47.914;22.266;2023-03-11T13:24:49;6.55;71.73
75387;DHT22;63966;47.914;22.266;2023-03-11T13:28:02;6.37;73.68
75387;DHT22;63966;47.914;22.266;2023-03-11T13:41:35;5.47;75.88
75387;DHT22;63966;47.914;22.266;2023-03-11T13:44:40;5.48;76.28
75387;DHT22;63966;47.914;22.266;2023-03-11T13:47:46;5.35;77.98
75387;DHT22;63966;47.914;22.266;2023-03-11T13:57:35;4.92;78.84
75387;DHT22;63966;47.914;22.266;2023-03-11T14:01:20;4.66;80.19
75387;DHT22;63966;47.914;22.266;2023-03-11T14:04:27;4.46;80.21
75387;DHT22;63966;47.914;22.266;2023-03-11T14:07:33;4.54;81.14
75387;DHT22;63966;47.914;22.266;2023-03-11T14:10:39;4.51;80.77
75387;DHT22;63966;47.914;22.266;2023-03-11T14:13:53;4.68;82.58
75387;DHT22;63966;47.914;22.266;2023-03-11T14:16:58;4.79;82.20
75387;DHT22;63966;47.914;22.266;2023-03-11T14:20:16;4.93;81.96
75387;DHT22;63966;47.914;22.266;2023-03-11T14:23:27;4.96;81.69
75387;DHT22;63966;47.914;22.266;2023-03-11T14:26:33;4.82;81.64
75387;DHT22;63966;47.914;22.266;2023-03-11T14:29:41;4.72;82.17
75387;DHT22;63966;47.914;22.266;2023-03-11T14:32:59;4.49;82.84
75387;DHT22;63966;47.914;22.266;2023-03-11T14:36:05;4.41;83.59
75387;DHT22;63966;47.914;22.266;2023-03-11T14:39:37;4.38;84.02
75387;DHT22;63966;47.914;22.266;2023-03-11T14:42:41;4.40;84.59
75387;DHT22;63966;47.914;22.266;2023-03-11T14:45:47;4.45;84.56
75387;DHT22;63966;47.914;22.266;2023-03-11T14:48:53;4.51;84.35
75387;DHT22;63966;47.914;22.266;2023-03-11T14:52:04;4.77;84.67
75387;DHT22;63966;47.914;22.266;2023-03-11T14:55:22;4.93;82.84
75387;DHT22;63966;47.914;22.266;2023-03-11T15:01:40;4.86;82.70
75387;DHT22;63966;47.914;22.266;2023-03-11T15:04:45;4.66;82.81
75387;DHT22;63966;47.914;22.266;2023-03-11T15:07:50;4.55;84.29
75387;DHT22;63966;47.914;22.266;2023-03-11T15:14:28;4.31;83.23
75387;DHT22;63966;47.914;22.266;2023-03-11T15:17:35;4.27;83.72
75387;DHT22;63966;47.914;22.266;2023-03-11T15:20:46;4.37;84.44
75387;DHT22;63966;47.914;22.266;2023-03-11T15:24:04;4.33;83.67
75387;DHT22;63966;47.914;22.266;2023-03-11T15:27:32;4.37;84.28
75387;DHT22;63966;47.914;22.266;2023-03-11T15:30:36;4.27;84.57
75387;DHT22;63966;47.914;22.266;2023-03-11T15:33:41;4.44;84.21
75387;DHT22;63966;47.914;22.266;2023-03-11T15:39:51;4.61;84.05
75387;DHT22;63966;47.914;22.266;2023-03-11T15:46:17;4.71;84.36
75387;DHT22;63966;47.914;22.266;2023-03-11T15:49:21;4.76;84.28
75387;DHT22;63966;47.914;22.266;2023-03-11T15:52:25;4.69;84.69
75387;DHT22;63966;47.914;22.266;2023-03-11T15:55:28;4.77;84.64
75387;DHT22;63966;47.914;22.266;2023-03-11T15:58:32;4.68;85.25
75387;DHT22;63966;47.914;22.266;2023-03-11T16:01:36;4.65;85.60
75387;DHT22;63966;47.914;22.266;2023-03-11T16:04:39;4.65;85.83
75387;DHT22;63966;47.914;22.266;2023-03-11T16:07:44;4.69;85.58
75387;DHT22;63966;47.914;22.266;2023-03-11T16:10:49;4.64;85.29
75387;DHT22;63966;47.914;22.266;2023-03-11T16:13:52;4.73;85.37
75387;DHT22;63966;47.914;22.266;2023-03-11T16:16:56;4.71;85.13
75387;DHT22;63966;47.914;22.266;2023-03-11T16:19:59;4.59;85.09
75387;DHT22;63966;47.914;22.266;2023-03-11T16:23:04;4.37;86.37
75387;DHT22;63966;47.914;22.266;2023-03-11T16:26:10;4.24;86.54
75387;DHT22;63966;47.914;22.266;2023-03-11T16:29:14;4.34;86.50
75387;DHT22;63966;47.914;22.266;2023-03-11T16:32:22;4.40;86.14
75387;DHT22;63966;47.914;22.266;2023-03-11T16:35:26;4.41;86.06
75387;DHT22;63966;47.914;22.266;2023-03-11T16:38:30;4.44;87.02
75387;DHT22;63966;47.914;22.266;2023-03-11T16:41:44;4.45;87.41
75387;DHT22;63966;47.914;22.266;2023-03-11T16:44:48;4.46;87.38
75387;DHT22;63966;47.914;22.266;2023-03-11T16:47:51;4.51;87.32
75387;DHT22;63966;47.914;22.266;2023-03-11T16:50:55;4.51;87.10
75387;DHT22;63966;47.914;22.266;2023-03-11T16:53:58;4.42;87.32
75387;DHT22;63966;47.914;22.266;2023-03-11T16:57:02;4.46;85.52
75387;DHT22;63966;47.914;22.266;2023-03-11T17:00:07;4.34;85.26
75387;DHT22;63966;47.914;22.266;2023-03-11T17:03:13;4.41;81.69
75387;DHT22;63966;47.914;22.266;2023-03-11T17:06:19;4.52;81.42
75387;DHT22;63966;47.914;22.266;2023-03-11T17:09:23;4.55;81.23
75387;DHT22;63966;47.914;22.266;2023-03-11T17:12:27;4.65;81.53
75387;DHT22;63966;47.914;22.266;2023-03-11T17:15:31;4.56;82.83
75387;DHT22;63966;47.914;22.266;2023-03-11T17:18:36;4.52;82.78
75387;DHT22;63966;47.914;22.266;2023-03-11T17:21:40;4.52;81.61
75387;DHT22;63966;47.914;22.266;2023-03-11T17:24:44;4.55;81.44
75387;DHT22;63966;47.914;22.266;2023-03-11T17:27:48;4.49;81.39
75387;DHT22;63966;47.914;22.266;2023-03-11T17:30:52;4.52;80.70
75387;DHT22;63966;47.914;22.266;2023-03-11T17:33:56;4.54;79.83
75387;DHT22;63966;47.914;22.266;2023-03-11T17:37:01;4.52;80.07
75387;DHT22;63966;47.914;22.266;2023-03-11T17:40:05;4.52;79.57
75387;DHT22;63966;47.914;22.266;2023-03-11T17:43:09;4.48;79.43
75387;DHT22;63966;47.914;22.266;2023-03-11T17:46:15;4.41;79.64
75387;DHT22;63966;47.914;22.266;2023-03-11T17:49:19;4.37;80.45
75387;DHT22;63966;47.914;22.266;2023-03-11T17:52:26;4.38;80.18
75387;DHT22;63966;47.914;22.266;2023-03-11T17:55:31;4.38;78.85
75387;DHT22;63966;47.914;22.266;2023-03-11T17:58:35;4.44;77.84
75387;DHT22;63966;47.914;22.266;2023-03-11T18:01:39;4.42;78.21
75387;DHT22;63966;47.914;22.266;2023-03-11T18:04:43;4.45;78.23
75387;DHT22;63966;47.914;22.266;2023-03-11T18:07:48;4.42;77.35
75387;DHT22;63966;47.914;22.266;2023-03-11T18:10:58;4.35;77.89
75387;DHT22;63966;47.914;22.266;2023-03-11T18:14:02;4.34;74.21
75387;DHT22;63966;47.914;22.266;2023-03-11T18:17:05;4.28;74.18
75387;DHT22;63966;47.914;22.266;2023-03-11T18:20:10;4.28;70.01
75387;DHT22;63966;47.914;22.266;2023-03-11T18:23:16;4.17;69.70
75387;DHT22;63966;47.914;22.266;2023-03-11T18:26:20;4.10;68.08
75387;DHT22;63966;47.914;22.266;2023-03-11T18:29:24;4.03;68.20
75387;DHT22;63966;47.914;22.266;2023-03-11T18:32:28;4.01;67.71
75387;DHT22;63966;47.914;22.266;2023-03-11T18:35:32;3.94;67.97
75387;DHT22;63966;47.914;22.266;2023-03-11T18:38:36;3.90;69.01
75387;DHT22;63966;47.914;22.266;2023-03-11T18:41:39;3.80;69.55
75387;DHT22;63966;47.914;22.266;2023-03-11T18:44:44;3.80;69.79
75387;DHT22;63966;47.914;22.266;2023-03-11T18:47:48;3.73;68.02
75387;DHT22;63966;47.914;22.266;2023-03-11T18:50:55;3.70;66.61
75387;DHT22;63966;47.914;22.266;2023-03-11T18:53:59;3.63;68.02
75387;DHT22;63966;47.914;22.266;2023-03-11T18:57:03;3.56;67.00
75387;DHT22;63966;47.914;22.266;2023-03-11T19:00:07;3.51;67.81
75387;DHT22;63966;47.914;22.266;2023-03-11T19:03:11;3.45;68.23
75387;DHT22;63966;47.914;22.266;2023-03-11T19:06:15;3.43;68.98
75387;DHT22;63966;47.914;22.266;2023-03-11T19:09:19;3.39;69.29
75387;DHT22;63966;47.914;22.266;2023-03-11T19:12:23;3.34;69.39
75387;DHT22;63966;47.914;22.266;2023-03-11T19:15:26;3.32;69.34
75387;DHT22;63966;47.914;22.266;2023-03-11T19:18:30;3.32;68.22
75387;DHT22;63966;47.914;22.266;2023-03-11T19:21:34;3.24;67.71
75387;DHT22;63966;47.914;22.266;2023-03-11T19:24:37;3.22;64.53
75387;DHT22;63966;47.914;22.266;2023-03-11T19:27:41;3.31;62.81
75387;DHT22;63966;47.914;22.266;2023-03-11T19:30:48;3.31;62.41
75387;DHT22;63966;47.914;22.266;2023-03-11T19:33:52;3.18;64.09
75387;DHT22;63966;47.914;22.266;2023-03-11T19:36:56;3.17;62.13
75387;DHT22;63966;47.914;22.266;2023-03-11T19:40:00;3.05;62.55
75387;DHT22;63966;47.914;22.266;2023-03-11T19:43:04;2.99;63.56
75387;DHT22;63966;47.914;22.266;2023-03-11T19:46:11;2.97;64.01
75387;DHT22;63966;47.914;22.266;2023-03-11T19:49:15;2.96;63.52
75387;DHT22;63966;47.914;22.266;2023-03-11T19:52:19;2.96;64.89
75387;DHT22;63966;47.914;22.266;2023-03-11T19:55:25;2.94;64.48
75387;DHT22;63966;47.914;22.266;2023-03-11T19:58:29;2.99;64.42
75387;DHT22;63966;47.914;22.266;2023-03-11T20:01:33;2.97;64.83
75387;DHT22;63966;47.914;22.266;2023-03-11T20:04:37;2.99;65.58
75387;DHT22;63966;47.914;22.266;2023-03-11T20:07:44;2.94;65.58
75387;DHT22;63966;47.914;22.266;2023-03-11T20:10:50;2.99;63.66
75387;DHT22;63966;47.914;22.266;2023-03-11T20:13:54;2.97;63.17
75387;DHT22;63966;47.914;22.266;2023-03-11T20:16:58;2.94;63.68
75387;DHT22;63966;47.914;22.266;2023-03-11T20:20:02;2.90;64.27
75387;DHT22;63966;47.914;22.266;2023-03-11T20:23:06;2.82;64.24
75387;DHT22;63966;47.914;22.266;2023-03-11T20:26:15;2.82;64.04
75387;DHT22;63966;47.914;22.266;2023-03-11T20:29:19;2.82;64.43
75387;DHT22;63966;47.914;22.266;2023-03-11T20:32:22;2.75;64.77
75387;DHT22;63966;47.914;22.266;2023-03-11T20:35:26;2.73;64.74
75387;DHT22;63966;47.914;22.266;2023-03-11T20:38:30;2.66;65.21
75387;DHT22;63966;47.914;22.266;2023-03-11T20:41:36;2.62;65.34
75387;DHT22;63966;47.914;22.266;2023-03-11T20:44:40;2.56;65.04
75387;DHT22;63966;47.914;22.266;2023-03-11T20:47:44;2.56;65.24
75387;DHT22;63966;47.914;22.266;2023-03-11T20:50:48;2.52;66.64
75387;DHT22;63966;47.914;22.266;2023-03-11T20:53:53;2.48;66.31